Time;durP1;ratioP1;P1;durP2;ratioP2;P2;SDS_P1;SDS_P2;PMS_P1;PMS_P2;Temp;Humidity;BMP_temperature;BMP_pressure;BME280_temperature;BME280_humidity;BME280_pressure;Samples;Min_cycle;Max_cycle;Signal;HPM_P1;HPM_P2
2022/10/28 00:01:00;;;;;;;21.58;13.13;;;;;;;;;;6214964;23;20012;-79
2022/10/28 00:03:26;;;;;;;38.60;15.27;;;;;;;;;;6214921;23;20012;-78
2022/10/28 00:05:53;;;;;;;36.15;17.90;;;;;;;;;;6215219;23;20016;-80
2022/10/28 00:08:19;;;;;;;36.55;17.85;;;;;;;;;;6241289;23;20558;-80
2022/10/28 00:10:45;;;;;;;43.70;19.65;;;;;;;;;;6241152;23;20016;-81
2022/10/28 00:13:10;;;;;;;36.03;17.33;;;;;;;;;;6214685;23;20012;-79
2022/10/28 00:15:36;;;;;;;42.00;18.70;;;;;;;;;;6214094;23;20043;-80
2022/10/28 00:18:02;;;;;;;31.33;15.13;;;;;;;;;;6214511;23;20023;-80
2022/10/28 00:20:29;;;;;;;33.75;15.90;;;;;;;;;;6240891;23;20015;-80
2022/10/28 00:22:55;;;;;;;36.33;16.17;;;;;;;;;;6241334;23;20091;-80
2022/10/28 00:25:23;;;;;;;35.28;17.48;;;;;;;;;;6241225;23;20039;-78
2022/10/28 00:27:50;;;;;;;29.55;13.25;;;;;;;;;;6241112;23;20419;-79
2022/10/28 00:30:16;;;;;;;29.00;13.48;;;;;;;;;;6189434;23;20031;-79
2022/10/28 00:32:42;;;;;;;28.85;15.18;;;;;;;;;;6241059;23;20460;-80
2022/10/28 00:35:08;;;;;;;30.15;15.60;;;;;;;;;;6241487;23;20091;-80
2022/10/28 00:37:34;;;;;;;41.70;19.42;;;;;;;;;;6214785;23;20468;-81
2022/10/28 00:40:00;;;;;;;30.92;16.55;;;;;;;;;;6214937;23;20044;-80
2022/10/28 00:42:26;;;;;;;37.65;16.58;;;;;;;;;;6214775;23;20008;-80
2022/10/28 00:44:56;;;;;;;36.53;15.77;;;;;;;;;;6241138;23;20022;-78
2022/10/28 00:47:40;;;;;;;41.53;18.15;;;;;;;;;;6214292;23;20436;-78
2022/10/28 00:50:09;;;;;;;41.03;16.58;;;;;;;;;;6241026;23;20518;-78
2022/10/28 00:52:35;;;;;;;43.47;17.00;;;;;;;;;;6240855;23;20019;-79
2022/10/28 00:55:01;;;;;;;42.20;16.85;;;;;;;;;;6214382;23;20012;-78
2022/10/28 00:57:30;;;;;;;41.13;16.67;;;;;;;;;;6240462;23;20675;-78
2022/10/28 00:59:56;;;;;;;28.88;13.43;;;;;;;;;;6241005;23;20428;-78
2022/10/28 01:02:22;;;;;;;37.95;14.65;;;;;;;;;;6241011;23;20023;-78
2022/10/28 01:04:48;;;;;;;39.85;17.00;;;;;;;;;;6213962;23;20020;-78
2022/10/28 01:07:14;;;;;;;29.77;14.05;;;;;;;;;;6213950;23;20452;-77
2022/10/28 01:09:40;;;;;;;34.10;15.13;;;;;;;;;;6213907;23;20488;-78
2022/10/28 01:12:06;;;;;;;32.85;13.13;;;;;;;;;;6188704;23;20008;-79
2022/10/28 01:14:31;;;;;;;22.40;11.63;;;;;;;;;;6188885;23;20091;-79
2022/10/28 01:17:00;;;;;;;24.55;11.38;;;;;;;;;;6240693;23;20013;-80
2022/10/28 01:19:35;;;;;;;23.85;11.57;;;;;;;;;;6240894;23;20023;-77
2022/10/28 01:22:06;;;;;;;14.27;9.43;;;;;;;;;;6240620;23;20411;-79
2022/10/28 01:24:55;;;;;;;17.95;10.48;;;;;;;;;;6189024;23;20040;-79
2022/10/28 01:27:21;;;;;;;15.93;9.38;;;;;;;;;;6220979;23;20397;-80
2022/10/28 01:29:50;;;;;;;25.27;11.18;;;;;;;;;;6213958;23;20020;-79
2022/10/28 01:32:17;;;;;;;23.33;10.23;;;;;;;;;;6213801;23;20014;-78
2022/10/28 01:34:52;;;;;;;20.30;10.52;;;;;;;;;;6189027;23;20069;-79
2022/10/28 01:37:25;;;;;;;24.15;11.50;;;;;;;;;;6240274;23;20491;-79
2022/10/28 01:39:53;;;;;;;25.98;12.57;;;;;;;;;;6240827;23;20039;-81
2022/10/28 01:42:37;;;;;;;26.70;12.77;;;;;;;;;;6214002;23;20008;-80
2022/10/28 01:45:12;;;;;;;20.77;10.95;;;;;;;;;;6240795;23;20016;-79
2022/10/28 01:47:50;;;;;;;24.08;10.35;;;;;;;;;;6240541;23;20012;-80
2022/10/28 01:50:48;;;;;;;21.20;10.52;;;;;;;;;;6188809;23;20069;-79
2022/10/28 01:53:15;;;;;;;24.52;11.07;;;;;;;;;;6157962;23;20139;-80
2022/10/28 01:55:43;;;;;;;27.20;11.63;;;;;;;;;;6240402;23;20016;-78
2022/10/28 01:58:09;;;;;;;34.03;13.82;;;;;;;;;;6189030;23;20012;-79
2022/10/28 02:00:35;;;;;;;24.52;9.88;;;;;;;;;;6214194;23;20016;-80
2022/10/28 02:03:01;;;;;;;26.50;11.35;;;;;;;;;;6213779;23;20023;-77
2022/10/28 02:05:38;;;;;;;29.70;12.00;;;;;;;;;;6240603;23;20149;-77
2022/10/28 02:08:17;;;;;;;24.90;11.60;;;;;;;;;;6213400;23;20066;-79
2022/10/28 02:10:49;;;;;;;29.02;11.90;;;;;;;;;;6213558;23;20111;-79
2022/10/28 02:13:15;;;;;;;32.08;12.85;;;;;;;;;;6240361;23;20039;-79
2022/10/28 02:15:44;;;;;;;30.02;11.30;;;;;;;;;;6240444;23;20074;-78
2022/10/28 02:18:17;;;;;;;27.15;11.75;;;;;;;;;;6240368;23;20004;-79
2022/10/28 02:20:43;;;;;;;31.95;12.45;;;;;;;;;;6213736;23;20012;-80
2022/10/28 02:23:12;;;;;;;26.90;11.40;;;;;;;;;;6240595;23;20016;-79
2022/10/28 02:25:44;;;;;;;26.85;12.50;;;;;;;;;;6213852;23;20621;-79
2022/10/28 02:28:11;;;;;;;17.88;10.85;;;;;;;;;;6240410;23;20018;-79
2022/10/28 02:31:12;;;;;;;24.58;11.05;;;;;;;;;;6240289;23;20642;-76
2022/10/28 02:33:38;;;;;;;26.02;11.73;;;;;;;;;;6088861;23;20038;-80
2022/10/28 02:36:05;;;;;;;25.85;11.93;;;;;;;;;;6209657;23;20050;-80
2022/10/28 02:38:42;;;;;;;24.88;11.63;;;;;;;;;;6189697;23;20131;-80
2022/10/28 02:41:11;;;;;;;24.20;11.07;;;;;;;;;;6190071;23;20054;-80
2022/10/28 02:43:37;;;;;;;23.42;11.10;;;;;;;;;;6217021;23;20008;-81
2022/10/28 02:46:03;;;;;;;13.75;8.40;;;;;;;;;;6247558;23;20015;-81
2022/10/28 02:48:34;;;;;;;19.65;10.27;;;;;;;;;;6245549;23;20015;-80
2022/10/28 02:51:01;;;;;;;17.83;10.20;;;;;;;;;;6215511;23;20088;-80
2022/10/28 02:53:32;;;;;;;17.20;9.05;;;;;;;;;;6216210;23;20569;-80
2022/10/28 02:55:58;;;;;;;19.23;10.50;;;;;;;;;;6215762;23;20069;-80
2022/10/28 02:58:24;;;;;;;18.85;10.93;;;;;;;;;;6216281;23;20243;-80
2022/10/28 03:00:50;;;;;;;20.00;10.60;;;;;;;;;;6244216;23;20333;-80
2022/10/28 03:03:16;;;;;;;20.75;10.80;;;;;;;;;;6244571;23;20012;-81
2022/10/28 03:05:42;;;;;;;19.70;11.50;;;;;;;;;;6243580;23;20356;-81
2022/10/28 03:08:08;;;;;;;21.40;10.77;;;;;;;;;;6191562;23;20012;-81
2022/10/28 03:10:34;;;;;;;12.63;8.15;;;;;;;;;;6243130;23;20070;-81
2022/10/28 03:12:59;;;;;;;21.67;11.43;;;;;;;;;;6242484;23;20020;-80
2022/10/28 03:15:25;;;;;;;19.95;10.98;;;;;;;;;;6215574;23;20012;-80
2022/10/28 03:17:51;;;;;;;21.50;11.48;;;;;;;;;;6215928;23;20016;-79
2022/10/28 03:20:17;;;;;;;18.52;10.77;;;;;;;;;;6243619;23;20041;-80
2022/10/28 03:22:43;;;;;;;16.60;9.93;;;;;;;;;;6217710;23;20016;-79
2022/10/28 03:25:09;;;;;;;17.42;10.30;;;;;;;;;;6253909;23;20019;-79
2022/10/28 03:27:38;;;;;;;21.27;11.32;;;;;;;;;;6229969;23;20008;-80
2022/10/28 03:30:04;;;;;;;19.67;11.88;;;;;;;;;;6257186;23;20027;-79
2022/10/28 03:32:30;;;;;;;16.75;10.55;;;;;;;;;;6247569;23;20012;-80
2022/10/28 03:34:56;;;;;;;22.42;11.80;;;;;;;;;;6197383;23;20044;-83
2022/10/28 03:37:21;;;;;;;21.95;12.35;;;;;;;;;;6227179;23;20020;-83
2022/10/28 03:39:47;;;;;;;20.35;10.70;;;;;;;;;;6250626;23;20036;-84
2022/10/28 03:42:13;;;;;;;24.60;12.85;;;;;;;;;;6252745;23;20008;-83
2022/10/28 03:44:39;;;;;;;24.25;12.18;;;;;;;;;;6201294;23;20015;-83
2022/10/28 03:47:06;;;;;;;23.65;11.52;;;;;;;;;;6255642;23;20053;-83
2022/10/28 03:49:32;;;;;;;14.38;9.45;;;;;;;;;;6257644;23;20115;-81
2022/10/28 03:51:57;;;;;;;22.23;11.68;;;;;;;;;;6204932;23;20413;-83
2022/10/28 03:54:23;;;;;;;20.90;11.88;;;;;;;;;;6231261;23;20058;-84
2022/10/28 03:56:49;;;;;;;23.55;12.00;;;;;;;;;;6257645;23;20012;-82
2022/10/28 03:59:15;;;;;;;14.32;8.98;;;;;;;;;;6249671;23;20356;-80
2022/10/28 04:01:41;;;;;;;22.17;12.48;;;;;;;;;;6247199;23;20336;-82
2022/10/28 04:04:06;;;;;;;24.65;11.70;;;;;;;;;;6253163;23;20018;-81
2022/10/28 04:06:32;;;;;;;20.70;11.60;;;;;;;;;;6224731;23;20098;-79
2022/10/28 04:08:58;;;;;;;24.90;12.45;;;;;;;;;;6226540;23;20016;-82
2022/10/28 04:11:24;;;;;;;20.55;10.82;;;;;;;;;;6254492;23;20016;-82
2022/10/28 04:13:50;;;;;;;18.95;10.77;;;;;;;;;;6223855;23;20012;-81
2022/10/28 04:16:16;;;;;;;21.95;11.48;;;;;;;;;;6227716;23;20016;-81
2022/10/28 04:18:42;;;;;;;20.02;10.90;;;;;;;;;;6253896;23;20016;-82
2022/10/28 04:21:08;;;;;;;24.63;13.77;;;;;;;;;;6248778;23;20357;-81
2022/10/28 04:23:34;;;;;;;22.25;12.95;;;;;;;;;;6254538;23;20034;-81
2022/10/28 04:26:00;;;;;;;21.38;11.82;;;;;;;;;;6256984;23;20016;-81
2022/10/28 04:28:25;;;;;;;19.42;12.00;;;;;;;;;;6232221;23;20019;-82
2022/10/28 04:30:51;;;;;;;25.52;13.48;;;;;;;;;;6230570;23;20561;-82
2022/10/28 04:33:17;;;;;;;20.65;12.38;;;;;;;;;;6242593;23;20003;-82
2022/10/28 04:35:43;;;;;;;21.85;12.38;;;;;;;;;;6243504;22;20008;-83
2022/10/28 04:38:10;;;;;;;23.25;11.88;;;;;;;;;;6242502;22;20012;-81
2022/10/28 04:40:36;;;;;;;26.88;13.35;;;;;;;;;;6219782;22;20016;-82
2022/10/28 04:43:02;;;;;;;20.13;11.48;;;;;;;;;;6245383;22;20058;-83
2022/10/28 04:45:28;;;;;;;18.95;11.20;;;;;;;;;;6271789;22;20038;-84
2022/10/28 04:47:57;;;;;;;19.27;11.77;;;;;;;;;;6245638;22;20011;-81
2022/10/28 04:50:23;;;;;;;23.02;11.88;;;;;;;;;;6219311;23;20056;-81
2022/10/28 04:52:49;;;;;;;21.20;11.30;;;;;;;;;;6244768;22;20035;-80
2022/10/28 04:55:15;;;;;;;21.70;11.82;;;;;;;;;;6243011;23;20075;-78
2022/10/28 04:57:40;;;;;;;19.35;11.00;;;;;;;;;;6239816;23;20038;-78
2022/10/28 05:00:07;;;;;;;25.10;13.27;;;;;;;;;;6237854;23;20018;-79
2022/10/28 05:02:32;;;;;;;12.18;7.70;;;;;;;;;;6262545;23;20016;-78
2022/10/28 05:05:02;;;;;;;14.05;9.32;;;;;;;;;;6248279;23;20390;-78
2022/10/28 05:07:29;;;;;;;16.63;10.93;;;;;;;;;;6216300;23;20008;-79
2022/10/28 05:09:55;;;;;;;26.75;13.02;;;;;;;;;;6249646;23;20395;-79
2022/10/28 05:12:21;;;;;;;19.23;12.02;;;;;;;;;;6227863;23;20014;-78
2022/10/28 05:14:47;;;;;;;29.42;12.75;;;;;;;;;;6252667;23;20012;-80
2022/10/28 05:17:12;;;;;;;24.88;14.43;;;;;;;;;;6219391;23;20498;-80
2022/10/28 05:19:39;;;;;;;26.05;14.48;;;;;;;;;;6243255;23;20035;-80
2022/10/28 05:22:05;;;;;;;24.02;12.40;;;;;;;;;;6242615;23;20008;-80
2022/10/28 05:24:31;;;;;;;19.40;10.18;;;;;;;;;;6243068;23;20055;-80
2022/10/28 05:26:58;;;;;;;22.45;12.90;;;;;;;;;;6244746;23;20039;-82
2022/10/28 05:29:24;;;;;;;22.38;12.70;;;;;;;;;;6248925;23;20028;-80
2022/10/28 05:31:50;;;;;;;18.80;11.35;;;;;;;;;;6245629;23;20071;-81
2022/10/28 05:34:16;;;;;;;21.50;12.70;;;;;;;;;;6193845;23;20035;-80
2022/10/28 05:36:42;;;;;;;20.15;12.88;;;;;;;;;;6218794;23;20099;-80
2022/10/28 05:39:08;;;;;;;22.30;12.02;;;;;;;;;;6248233;23;20018;-81
2022/10/28 05:41:33;;;;;;;17.85;11.80;;;;;;;;;;6247747;23;20046;-80
2022/10/28 05:43:59;;;;;;;17.35;11.07;;;;;;;;;;6218031;23;20360;-74
2022/10/28 05:46:25;;;;;;;21.83;12.73;;;;;;;;;;6240619;23;20022;-73
2022/10/28 05:48:51;;;;;;;17.52;12.13;;;;;;;;;;6240265;23;20106;-74
2022/10/28 05:51:17;;;;;;;17.80;11.82;;;;;;;;;;6240646;23;20012;-73
2022/10/28 05:53:43;;;;;;;20.13;13.00;;;;;;;;;;6240239;23;20019;-74
2022/10/28 05:56:09;;;;;;;18.85;12.68;;;;;;;;;;6240237;23;20012;-74
2022/10/28 05:58:35;;;;;;;21.60;13.93;;;;;;;;;;6240269;23;20008;-73
2022/10/28 06:01:00;;;;;;;23.02;13.48;;;;;;;;;;6239624;23;20427;-74
2022/10/28 06:03:27;;;;;;;18.33;12.02;;;;;;;;;;6213587;23;20012;-74
2022/10/28 06:05:53;;;;;;;17.08;10.48;;;;;;;;;;6188895;23;20070;-71
2022/10/28 06:08:19;;;;;;;18.75;11.77;;;;;;;;;;6239996;23;20522;-73
2022/10/28 06:10:48;;;;;;;14.55;11.38;;;;;;;;;;6235402;23;20519;-73
2022/10/28 06:13:14;;;;;;;17.92;11.43;;;;;;;;;;6238848;23;20008;-74
2022/10/28 06:15:40;;;;;;;15.70;10.93;;;;;;;;;;6239392;23;20095;-74
2022/10/28 06:18:06;;;;;;;20.58;11.63;;;;;;;;;;6215759;23;20478;-74
2022/10/28 06:20:32;;;;;;;18.80;11.02;;;;;;;;;;6212988;23;20027;-74
2022/10/28 06:22:58;;;;;;;11.93;9.38;;;;;;;;;;6241439;23;20012;-76
2022/10/28 06:25:24;;;;;;;22.10;11.80;;;;;;;;;;6241248;23;20047;-74
2022/10/28 06:27:56;;;;;;;19.38;11.38;;;;;;;;;;6240587;23;20008;-75
2022/10/28 06:30:22;;;;;;;14.85;10.65;;;;;;;;;;6213453;23;20533;-74
2022/10/28 06:32:48;;;;;;;21.20;12.50;;;;;;;;;;6213427;23;20083;-73
2022/10/28 06:35:14;;;;;;;18.67;10.70;;;;;;;;;;6239336;23;20463;-73
2022/10/28 06:37:40;;;;;;;21.35;11.27;;;;;;;;;;6213126;23;20545;-74
2022/10/28 06:40:06;;;;;;;16.45;9.85;;;;;;;;;;6241685;23;20026;-73
2022/10/28 06:42:32;;;;;;;20.42;11.25;;;;;;;;;;6214808;23;20048;-73
2022/10/28 06:44:58;;;;;;;20.20;11.35;;;;;;;;;;6242485;23;20019;-73
2022/10/28 06:47:25;;;;;;;19.85;12.65;;;;;;;;;;6214781;23;20009;-75
2022/10/28 06:49:52;;;;;;;23.60;13.15;;;;;;;;;;6245527;23;20020;-75
2022/10/28 06:52:17;;;;;;;25.15;13.57;;;;;;;;;;6241292;23;20019;-74
2022/10/28 06:54:43;;;;;;;21.75;13.15;;;;;;;;;;6240774;23;20019;-74
2022/10/28 06:57:09;;;;;;;25.73;13.52;;;;;;;;;;6240272;23;20098;-73
2022/10/28 06:59:35;;;;;;;24.10;13.98;;;;;;;;;;6239612;23;20098;-74
2022/10/28 07:02:02;;;;;;;27.67;15.50;;;;;;;;;;6239705;23;20023;-75
2022/10/28 07:04:27;;;;;;;23.85;14.80;;;;;;;;;;6240945;23;20023;-76
2022/10/28 07:06:54;;;;;;;26.20;13.13;;;;;;;;;;6241648;23;20004;-74
2022/10/28 07:09:20;;;;;;;25.45;14.45;;;;;;;;;;6189830;23;20066;-73
2022/10/28 07:11:49;;;;;;;23.60;12.38;;;;;;;;;;6241820;23;20016;-74
2022/10/28 07:14:15;;;;;;;22.65;13.20;;;;;;;;;;6244903;23;20008;-74
2022/10/28 07:16:41;;;;;;;26.15;14.95;;;;;;;;;;6245491;23;20282;-74
2022/10/28 07:19:07;;;;;;;25.75;14.90;;;;;;;;;;6219682;23;20012;-74
2022/10/28 07:21:34;;;;;;;26.52;13.60;;;;;;;;;;6220142;23;20028;-75
2022/10/28 07:23:59;;;;;;;20.70;12.88;;;;;;;;;;6198546;23;20016;-75
2022/10/28 07:26:26;;;;;;;20.77;11.88;;;;;;;;;;6230589;23;20050;-75
2022/10/28 07:28:51;;;;;;;21.52;12.20;;;;;;;;;;6252718;23;20016;-75
2022/10/28 07:31:18;;;;;;;26.25;13.77;;;;;;;;;;6229688;23;20019;-75
2022/10/28 07:33:43;;;;;;;27.17;14.40;;;;;;;;;;6231993;23;20008;-76
2022/10/28 07:36:09;;;;;;;22.83;12.63;;;;;;;;;;6227274;23;20025;-74
2022/10/28 07:38:35;;;;;;;26.13;16.13;;;;;;;;;;6230498;23;20088;-75
2022/10/28 07:41:04;;;;;;;23.73;15.52;;;;;;;;;;6231480;23;20023;-76
2022/10/28 07:43:30;;;;;;;30.38;13.80;;;;;;;;;;6221837;23;20012;-77
2022/10/28 07:45:56;;;;;;;25.40;12.90;;;;;;;;;;6227295;23;20013;-76
2022/10/28 07:48:22;;;;;;;24.95;14.02;;;;;;;;;;6221411;23;20019;-75
2022/10/28 07:50:48;;;;;;;25.25;14.27;;;;;;;;;;6227836;23;20017;-76
2022/10/28 07:53:14;;;;;;;26.95;14.80;;;;;;;;;;6226899;23;20018;-76
2022/10/28 07:55:40;;;;;;;27.27;15.23;;;;;;;;;;6227444;23;20016;-75
2022/10/28 07:58:05;;;;;;;24.88;15.13;;;;;;;;;;6228434;23;20748;-75
2022/10/28 08:00:31;;;;;;;21.52;14.70;;;;;;;;;;6226411;23;20013;-76
2022/10/28 08:02:57;;;;;;;26.70;15.25;;;;;;;;;;6231105;23;20009;-75
2022/10/28 08:05:23;;;;;;;22.13;13.30;;;;;;;;;;6229502;23;20017;-75
2022/10/28 08:07:49;;;;;;;26.67;14.85;;;;;;;;;;6228308;23;20037;-75
2022/10/28 08:10:16;;;;;;;26.33;16.42;;;;;;;;;;6226856;23;20025;-75
2022/10/28 08:12:45;;;;;;;26.45;14.80;;;;;;;;;;6225939;23;20016;-76
2022/10/28 08:15:11;;;;;;;18.95;13.77;;;;;;;;;;6223714;23;20023;-75
2022/10/28 08:17:38;;;;;;;27.40;14.52;;;;;;;;;;6216215;23;20013;-75
2022/10/28 08:20:04;;;;;;;22.02;13.77;;;;;;;;;;6225442;23;20035;-75
2022/10/28 08:22:30;;;;;;;25.98;15.38;;;;;;;;;;6226250;23;20055;-76
2022/10/28 08:24:56;;;;;;;25.27;14.07;;;;;;;;;;6197178;23;20017;-74
2022/10/28 08:27:22;;;;;;;27.42;13.80;;;;;;;;;;6225629;23;20472;-76
2022/10/28 08:29:48;;;;;;;24.08;14.05;;;;;;;;;;6218482;23;20094;-75
2022/10/28 08:32:14;;;;;;;20.70;14.57;;;;;;;;;;6217073;23;20445;-74
2022/10/28 08:34:40;;;;;;;25.35;14.30;;;;;;;;;;6219980;23;20092;-75
2022/10/28 08:37:05;;;;;;;27.48;16.55;;;;;;;;;;6250377;23;20503;-75
2022/10/28 08:39:31;;;;;;;22.75;14.15;;;;;;;;;;6255315;23;20008;-74
2022/10/28 08:42:16;;;;;;;20.70;14.23;;;;;;;;;;6262189;23;19996;-76
2022/10/28 08:45:02;;;;;;;19.45;14.07;;;;;;;;;;6259191;23;20011;-76
2022/10/28 08:47:47;;;;;;;23.80;13.68;;;;;;;;;;6224507;23;20035;-75
2022/10/28 08:50:13;;;;;;;21.90;14.93;;;;;;;;;;6251702;23;20035;-75
2022/10/28 08:52:59;;;;;;;26.65;18.73;;;;;;;;;;6249597;23;20523;-75
2022/10/28 08:55:35;;;;;;;27.75;18.25;;;;;;;;;;6246377;23;20107;-75
2022/10/28 08:58:10;;;;;;;21.90;16.45;;;;;;;;;;6219653;23;20008;-75
2022/10/28 09:00:36;;;;;;;22.83;17.15;;;;;;;;;;6246346;23;20019;-75
2022/10/28 09:03:11;;;;;;;25.23;17.17;;;;;;;;;;6217092;23;20018;-76
2022/10/28 09:05:37;;;;;;;15.93;12.75;;;;;;;;;;6214338;23;20015;-74
2022/10/28 09:08:03;;;;;;;18.80;13.85;;;;;;;;;;6239908;23;20007;-75
2022/10/28 09:10:48;;;;;;;16.58;12.65;;;;;;;;;;6242097;23;20076;-75
2022/10/28 09:13:17;;;;;;;15.90;12.50;;;;;;;;;;6240174;23;20534;-74
2022/10/28 09:15:46;;;;;;;21.33;14.55;;;;;;;;;;6240531;23;20069;-74
2022/10/28 09:18:17;;;;;;;22.80;16.00;;;;;;;;;;6240883;23;20472;-75
2022/10/28 09:20:51;;;;;;;23.08;14.35;;;;;;;;;;6213317;23;20039;-74
2022/10/28 09:23:23;;;;;;;22.13;15.48;;;;;;;;;;6239266;23;20029;-73
2022/10/28 09:25:59;;;;;;;19.48;13.45;;;;;;;;;;6187537;23;20440;-73
2022/10/28 09:28:42;;;;;;;17.85;13.00;;;;;;;;;;6212111;23;20062;-74
2022/10/28 09:31:34;;;;;;;20.23;12.15;;;;;;;;;;6212485;23;20452;-75
2022/10/28 09:34:29;;;;;;;18.33;13.93;;;;;;;;;;6223183;23;20649;-75
2022/10/28 09:37:14;;;;;;;16.73;13.07;;;;;;;;;;6082099;23;20034;-74
2022/10/28 09:39:41;;;;;;;18.33;14.05;;;;;;;;;;6239878;23;20016;-74
2022/10/28 09:42:07;;;;;;;12.65;11.13;;;;;;;;;;6187440;23;20010;-76
2022/10/28 09:44:40;;;;;;;18.23;13.65;;;;;;;;;;6239523;23;20016;-75
2022/10/28 09:47:14;;;;;;;16.33;13.85;;;;;;;;;;6239304;23;20011;-75
2022/10/28 09:49:40;;;;;;;16.00;12.57;;;;;;;;;;6213043;23;20024;-74
2022/10/28 09:52:06;;;;;;;17.55;13.70;;;;;;;;;;6239892;23;20015;-74
2022/10/28 09:54:36;;;;;;;10.65;9.55;;;;;;;;;;6240048;23;20044;-75
2022/10/28 09:57:02;;;;;;;13.15;11.82;;;;;;;;;;6241278;23;20101;-76
2022/10/28 09:59:28;;;;;;;18.70;13.43;;;;;;;;;;6214652;23;20437;-74
2022/10/28 10:01:54;;;;;;;21.50;14.15;;;;;;;;;;6213453;23;20083;-72
2022/10/28 10:04:24;;;;;;;18.65;12.90;;;;;;;;;;6214693;23;20012;-74
2022/10/28 10:07:10;;;;;;;19.58;12.43;;;;;;;;;;6191418;23;20016;-74
2022/10/28 10:09:36;;;;;;;21.63;14.18;;;;;;;;;;6241573;23;20026;-74
2022/10/28 10:12:06;;;;;;;16.48;14.27;;;;;;;;;;6215217;23;20036;-74
2022/10/28 10:14:37;;;;;;;21.58;13.63;;;;;;;;;;6239917;23;20016;-74
2022/10/28 10:17:11;;;;;;;14.73;12.90;;;;;;;;;;6188610;23;20356;-75
2022/10/28 10:19:56;;;;;;;15.88;11.23;;;;;;;;;;6188058;23;20011;-74
2022/10/28 10:22:33;;;;;;;15.85;12.45;;;;;;;;;;6213191;23;20012;-75
2022/10/28 10:24:59;;;;;;;17.85;11.48;;;;;;;;;;6212792;23;20081;-76
2022/10/28 10:27:25;;;;;;;14.75;11.68;;;;;;;;;;6239438;23;20008;-73
2022/10/28 10:29:51;;;;;;;20.75;12.13;;;;;;;;;;6212593;23;20024;-73
2022/10/28 10:32:18;;;;;;;13.98;11.35;;;;;;;;;;6212800;23;20095;-75
2022/10/28 10:34:44;;;;;;;14.73;11.75;;;;;;;;;;6240053;23;20019;-74
2022/10/28 10:37:17;;;;;;;13.00;11.65;;;;;;;;;;6212709;23;20016;-75
2022/10/28 10:39:43;;;;;;;15.95;11.13;;;;;;;;;;6212772;23;20012;-74
2022/10/28 10:42:19;;;;;;;13.68;11.98;;;;;;;;;;6187769;23;20023;-74
2022/10/28 10:44:46;;;;;;;12.05;10.93;;;;;;;;;;6212606;23;20421;-75
2022/10/28 10:47:14;;;;;;;10.07;9.02;;;;;;;;;;6187688;23;20011;-75
2022/10/28 10:49:39;;;;;;;18.00;12.35;;;;;;;;;;6213656;23;20024;-74
2022/10/28 10:52:09;;;;;;;12.98;11.60;;;;;;;;;;6212086;23;20008;-74
2022/10/28 10:54:35;;;;;;;10.98;9.55;;;;;;;;;;6213578;23;20016;-74
2022/10/28 10:57:30;;;;;;;14.35;10.80;;;;;;;;;;6238978;23;20523;-74
2022/10/28 10:59:56;;;;;;;11.35;10.18;;;;;;;;;;6182100;23;20016;-77
2022/10/28 11:02:25;;;;;;;12.13;10.45;;;;;;;;;;6214100;23;20008;-78
2022/10/28 11:04:51;;;;;;;12.45;10.50;;;;;;;;;;6214368;23;20059;-76
2022/10/28 11:07:17;;;;;;;12.27;9.93;;;;;;;;;;6240983;23;20012;-76
2022/10/28 11:09:43;;;;;;;10.02;9.10;;;;;;;;;;6190281;23;20035;-76
2022/10/28 11:12:15;;;;;;;12.20;11.05;;;;;;;;;;6216156;23;20012;-76
2022/10/28 11:15:00;;;;;;;10.02;8.95;;;;;;;;;;6240422;23;20526;-76
2022/10/28 11:17:35;;;;;;;12.75;10.07;;;;;;;;;;6215925;23;20019;-76
2022/10/28 11:20:33;;;;;;;10.93;9.85;;;;;;;;;;6242660;23;20110;-75
2022/10/28 11:23:04;;;;;;;10.60;8.63;;;;;;;;;;6193169;23;20013;-76
2022/10/28 11:25:30;;;;;;;11.05;9.00;;;;;;;;;;6216622;23;20012;-75
2022/10/28 11:28:08;;;;;;;10.25;9.15;;;;;;;;;;6242877;23;20475;-75
2022/10/28 11:30:39;;;;;;;12.25;9.85;;;;;;;;;;6243673;23;20019;-75
2022/10/28 11:33:08;;;;;;;12.95;9.93;;;;;;;;;;6192588;23;20020;-76
2022/10/28 11:35:42;;;;;;;11.60;10.50;;;;;;;;;;6218278;23;20020;-76
2022/10/28 11:38:11;;;;;;;12.88;10.55;;;;;;;;;;6244644;23;20008;-76
2022/10/28 11:40:51;;;;;;;8.63;7.82;;;;;;;;;;6218657;23;20016;-76
2022/10/28 11:43:33;;;;;;;10.05;9.13;;;;;;;;;;6191892;23;20008;-76
2022/10/28 11:46:01;;;;;;;9.85;8.85;;;;;;;;;;6243545;23;20012;-76
2022/10/28 11:48:33;;;;;;;9.43;8.50;;;;;;;;;;6243298;23;20091;-77
2022/10/28 11:50:58;;;;;;;;;;;;;;;;;;6217927;23;20368;-77
2022/10/28 11:53:24;;;;;;;9.35;8.23;;;;;;;;;;6248823;23;19907;-77
2022/10/28 11:55:50;;;;;;;8.95;8.05;;;;;;;;;;6262184;23;20437;-77
2022/10/28 11:58:17;;;;;;;7.35;6.68;;;;;;;;;;6260832;23;20007;-77
2022/10/28 12:00:49;;;;;;;8.75;7.95;;;;;;;;;;6250966;23;20016;-76
2022/10/28 12:03:19;;;;;;;8.65;7.95;;;;;;;;;;6217215;23;20012;-76
2022/10/28 12:05:49;;;;;;;8.10;7.50;;;;;;;;;;6190623;23;20432;-77
2022/10/28 12:08:22;;;;;;;9.18;8.13;;;;;;;;;;6215440;23;20019;-77
2022/10/28 12:11:06;;;;;;;7.78;7.10;;;;;;;;;;6216089;23;20042;-76
2022/10/28 12:13:32;;;;;;;6.97;6.47;;;;;;;;;;6215109;23;20214;-77
2022/10/28 12:15:59;;;;;;;8.75;7.85;;;;;;;;;;6242023;23;20016;-76
2022/10/28 12:18:34;;;;;;;11.75;7.75;;;;;;;;;;6215434;23;20094;-76
2022/10/28 12:21:13;;;;;;;8.20;7.43;;;;;;;;;;6215189;23;20012;-76
2022/10/28 12:23:39;;;;;;;10.38;7.80;;;;;;;;;;6215217;23;20019;-76
2022/10/28 12:26:05;;;;;;;10.75;8.55;;;;;;;;;;6213511;23;20031;-76
2022/10/28 12:28:32;;;;;;;10.52;7.85;;;;;;;;;;6240378;23;20016;-76
2022/10/28 12:30:58;;;;;;;10.80;7.28;;;;;;;;;;6189686;23;20468;-75
2022/10/28 12:33:30;;;;;;;8.23;7.30;;;;;;;;;;6214329;23;20016;-75
2022/10/28 12:35:59;;;;;;;8.10;7.28;;;;;;;;;;6213955;23;20027;-76
2022/10/28 12:38:26;;;;;;;7.70;7.00;;;;;;;;;;6241891;23;20016;-75
2022/10/28 12:40:57;;;;;;;8.13;7.43;;;;;;;;;;6241990;23;20043;-74
2022/10/28 12:43:23;;;;;;;9.35;7.72;;;;;;;;;;6241072;23;20074;-75
2022/10/28 12:45:50;;;;;;;7.97;7.28;;;;;;;;;;6242146;23;20012;-76
2022/10/28 12:48:18;;;;;;;8.07;7.28;;;;;;;;;;6191230;23;20524;-75
2022/10/28 12:50:51;;;;;;;8.02;7.22;;;;;;;;;;6243801;23;20027;-75
2022/10/28 12:53:27;;;;;;;9.50;7.53;;;;;;;;;;6236461;23;20019;-74
2022/10/28 12:55:59;;;;;;;9.10;8.20;;;;;;;;;;6211735;23;20121;-75
2022/10/28 12:58:30;;;;;;;9.38;7.82;;;;;;;;;;6238983;23;20008;-74
2022/10/28 13:01:00;;;;;;;7.40;6.70;;;;;;;;;;6212618;23;20097;-74
2022/10/28 13:03:26;;;;;;;11.80;7.43;;;;;;;;;;6188335;23;20019;-74
2022/10/28 13:06:16;;;;;;;7.43;6.82;;;;;;;;;;6238592;23;20012;-76
2022/10/28 13:08:52;;;;;;;9.57;7.13;;;;;;;;;;6187631;23;20012;-74
2022/10/28 13:11:17;;;;;;;8.25;6.65;;;;;;;;;;6238743;23;20020;-75
2022/10/28 13:14:10;;;;;;;9.40;8.50;;;;;;;;;;6238680;23;20460;-74
2022/10/28 13:16:36;;;;;;;7.80;7.00;;;;;;;;;;6202374;23;20094;-73
2022/10/28 13:19:01;;;;;;;8.60;7.63;;;;;;;;;;6210847;23;20035;-76
2022/10/28 13:21:30;;;;;;;7.78;7.03;;;;;;;;;;6212145;23;20016;-75
2022/10/28 13:24:22;;;;;;;8.52;7.68;;;;;;;;;;6186707;23;20356;-76
2022/10/28 13:26:48;;;;;;;8.63;7.15;;;;;;;;;;6178658;23;20008;-74
2022/10/28 13:29:20;;;;;;;9.70;7.97;;;;;;;;;;6187197;23;20019;-75
2022/10/28 13:31:46;;;;;;;10.38;8.77;;;;;;;;;;6212932;23;20023;-76
2022/10/28 13:34:12;;;;;;;12.98;8.75;;;;;;;;;;6211893;23;20008;-76
2022/10/28 13:36:41;;;;;;;9.20;7.53;;;;;;;;;;6187918;23;20031;-76
2022/10/28 13:39:22;;;;;;;13.45;9.07;;;;;;;;;;6211974;23;20547;-76
2022/10/28 13:41:48;;;;;;;9.73;8.85;;;;;;;;;;6212069;23;20012;-75
2022/10/28 13:44:17;;;;;;;11.88;8.25;;;;;;;;;;6239048;23;20086;-76
2022/10/28 13:46:58;;;;;;;8.80;7.90;;;;;;;;;;6212193;23;20038;-74
2022/10/28 13:49:25;;;;;;;8.30;7.07;;;;;;;;;;6238890;23;20506;-75
2022/10/28 13:51:51;;;;;;;8.60;7.80;;;;;;;;;;6239207;23;20012;-75
2022/10/28 13:54:24;;;;;;;8.15;7.45;;;;;;;;;;6212779;23;20107;-74
2022/10/28 13:56:50;;;;;;;7.70;7.00;;;;;;;;;;6239135;23;20467;-75
2022/10/28 13:59:19;;;;;;;7.53;6.82;;;;;;;;;;6186955;23;20011;-74
2022/10/28 14:01:50;;;;;;;21.05;7.65;;;;;;;;;;6239354;23;20008;-75
2022/10/28 14:04:21;;;;;;;9.15;8.25;;;;;;;;;;6238823;23;20012;-74
2022/10/28 14:06:48;;;;;;;14.02;8.60;;;;;;;;;;6239067;23;20132;-74
2022/10/28 14:09:20;;;;;;;10.18;8.57;;;;;;;;;;6238394;23;20664;-75
2022/10/28 14:11:46;;;;;;;11.82;8.52;;;;;;;;;;6212242;23;20019;-75
2022/10/28 14:14:13;;;;;;;15.25;8.95;;;;;;;;;;6211752;23;20171;-74
2022/10/28 14:16:40;;;;;;;8.77;7.88;;;;;;;;;;6212295;23;20034;-74
2022/10/28 14:19:10;;;;;;;9.18;7.60;;;;;;;;;;6211862;23;20444;-73
2022/10/28 14:21:39;;;;;;;12.25;7.75;;;;;;;;;;6237828;23;20039;-74
2022/10/28 14:24:05;;;;;;;8.50;7.60;;;;;;;;;;6238899;23;20085;-74
2022/10/28 14:26:31;;;;;;;12.40;8.73;;;;;;;;;;6239370;23;20015;-73
2022/10/28 14:28:57;;;;;;;28.98;15.18;;;;;;;;;;6211791;23;20046;-73
2022/10/28 14:31:36;;;;;;;32.50;15.73;;;;;;;;;;6238806;23;20344;-73
2022/10/28 14:34:01;;;;;;;29.17;13.80;;;;;;;;;;6211914;23;20444;-73